Derby, KS

8:41 AM CDT on May 27, 2015 (GMT -0500)
Spring Ridge | | Change Station
CLOSE
Current Station
Personal Weather Station
Location: Derby, KS
Elevation: 1316 ft
Nearby Weather Stations

Elev 1316 ft 37.56 °N, 97.23 °W | Updated 9 seconds ago

Partly Cloudy
Partly Cloudy
66.3 °F
Feels Like 66.3 °F
N
0.0
Wind Variable Wind from SE
Gusts 3.0 mph

Today
High -- | Low -- °F
--% Chance of Precip.
Yesterday
High -- | Low -- °F
Precip. -- in
6:11 AM 8:41 PM
Waxing Gibbous, 67% visible
Pressure 30.04 in
Visibility 10.0 miles
Clouds Clear
Dew Point 65 °F
Humidity 95%
Rainfall 0.02 in
Snow Depth Not available.
UV 1 out of 12
Pollen 7.00 out of 12
Air Quality Not available.
Flu Activity No Activity
METAR KIAB 271258Z AUTO 07007KT 10SM CLR 18/16 A3006 RMK AO2 SLP173 T01810161

More Conditions Fewer Conditions

Pressure 30.04 in
Visibility 10.0 miles
Clouds Clear
Dew Point 65 °F
Humidity 95%
Rainfall 0.02 in
Snow Depth Not available.
UV 1 out of 12
Pollen 7.00 out of 12
Air Quality Not available.
Flu Activity No Activity
METAR KIAB 271258Z AUTO 07007KT 10SM CLR 18/16 A3006 RMK AO2 SLP173 T01810161

More Conditions Fewer Conditions

10-Day Weather Forecast

Almanac

Astronomy

May. 27, 2015 Rise Set
Actual Time
Civil Twilight
Nautical Twilight
Astronomical Twilight
Moon
Length of Visible Light
Length of Day
Tomorrow will be .
, % of the Moon is Illuminated

Today's Extremes

State Highs State Lows

Community

WunderPhotos

Upload Photos

1,824,664 photos uploaded!

WunderBlogs® & News

Nearby

Air Quality

  Air Quality AQ Index Pollutant
Not available.

Snow Depth

Station Depth Elevation

Earthquake Activity

City Distance Mag. Time & Date
Minimum magnitude displayed is 2.5.

Coastal Water Temperatures

Place Temperature

Stations

Nearby Weather Stations

Station Location Temp. Windchill Dew Point Humidity Wind Precip. Elev Updated Type